createdAt,value
2023-04-11T00:00:53.240Z,6018.00
2023-04-11T00:01:53.408Z,6051.00
2023-04-11T00:02:53.419Z,6174.00
2023-04-11T00:03:53.425Z,6398.00
2023-04-11T00:04:53.259Z,6519.00
2023-04-11T00:05:53.308Z,6649.00
2023-04-11T00:06:53.314Z,6774.00
2023-04-11T00:07:53.374Z,6922.00
2023-04-11T00:08:53.734Z,7061.00
2023-04-11T00:09:53.504Z,7063.00
2023-04-11T00:10:53.549Z,7006.00
2023-04-11T00:11:53.621Z,7051.00
2023-04-11T00:12:53.657Z,7103.00
2023-04-11T00:13:53.632Z,7139.00
2023-04-11T00:14:53.686Z,7191.00
2023-04-11T00:15:53.709Z,7275.00
2023-04-11T00:16:53.826Z,7256.00
2023-04-11T00:17:53.885Z,7246.00
2023-04-11T00:18:53.905Z,7026.00
2023-04-11T00:19:53.703Z,6887.00
2023-04-11T00:20:53.721Z,6829.00
2023-04-11T00:21:54.597Z,6858.00
2023-04-11T00:22:53.776Z,6876.00
2023-04-11T00:23:53.779Z,6944.00
2023-04-11T00:24:54.619Z,6925.00
2023-04-11T00:25:53.787Z,6871.00
2023-04-11T00:26:53.817Z,6880.00
2023-04-11T00:27:53.807Z,6717.00
2023-04-11T00:28:53.982Z,6632.00
2023-04-11T00:29:53.774Z,6559.00
2023-04-11T00:30:53.877Z,6524.00
2023-04-11T00:31:53.886Z,6379.00
2023-04-11T00:32:53.955Z,6461.00
2023-04-11T00:33:53.823Z,6334.00
2023-04-11T00:34:53.844Z,6208.00
2023-04-11T00:35:54.677Z,6188.00
2023-04-11T00:36:53.915Z,6102.00
2023-04-11T00:37:53.880Z,6090.00
2023-04-11T00:38:54.569Z,6052.00
2023-04-11T00:39:54.020Z,6064.00
2023-04-11T00:40:53.997Z,6093.00
2023-04-11T00:41:54.000Z,6206.00
2023-04-11T00:42:54.024Z,6052.00
2023-04-11T00:43:54.066Z,5890.00
2023-04-11T00:44:54.072Z,5850.00
2023-04-11T00:45:54.117Z,5834.00
2023-04-11T00:46:54.100Z,5665.00
2023-04-11T00:47:54.150Z,5655.00
2023-04-11T00:48:54.648Z,5629.00
2023-04-11T00:49:54.097Z,5688.00
2023-04-11T00:50:54.162Z,5854.00
2023-04-11T00:51:54.534Z,5950.00
2023-04-11T00:52:54.287Z,5607.00
2023-04-11T00:53:54.619Z,5546.00
2023-04-11T00:54:54.297Z,4914.00
2023-04-11T00:55:54.295Z,4952.00
2023-04-11T00:56:54.302Z,4946.00
2023-04-11T00:57:54.351Z,5077.00
2023-04-11T00:58:54.575Z,5379.00
2023-04-11T00:59:54.415Z,5609.00
2023-04-11T01:00:54.494Z,5778.00
2023-04-11T01:01:54.633Z,5786.00
2023-04-11T01:02:54.702Z,6021.00
2023-04-11T01:03:54.734Z,6097.00
2023-04-11T01:04:54.730Z,6303.00
2023-04-11T01:05:54.817Z,6477.00
2023-04-11T01:06:54.783Z,6199.00
2023-04-11T01:07:54.795Z,6025.00
2023-04-11T01:08:55.048Z,5988.00
2023-04-11T01:09:54.802Z,6169.00
2023-04-11T01:10:54.774Z,6244.00
2023-04-11T01:11:54.799Z,6283.00
2023-04-11T01:12:54.769Z,6148.00
2023-04-11T01:13:54.792Z,6294.00
2023-04-11T01:14:54.875Z,6590.00
2023-04-11T01:15:55.201Z,6645.00
2023-04-11T01:16:54.958Z,6756.00
2023-04-11T01:17:54.978Z,6899.00
2023-04-11T01:18:55.142Z,6907.00
2023-04-11T01:19:55.012Z,6917.00
2023-04-11T01:20:55.072Z,6749.00
2023-04-11T01:21:55.097Z,6704.00
2023-04-11T01:22:55.134Z,6769.00
2023-04-11T01:23:55.167Z,6805.00
2023-04-11T01:24:55.202Z,6668.00
2023-04-11T01:25:55.573Z,6585.00
2023-04-11T01:26:55.629Z,6670.00
2023-04-11T01:27:55.365Z,6809.00
2023-04-11T01:28:55.521Z,6923.00
2023-04-11T01:29:55.420Z,6930.00
2023-04-11T01:30:55.566Z,6912.00
2023-04-11T01:31:55.593Z,6759.00
2023-04-11T01:32:56.365Z,6711.00
2023-04-11T01:33:55.747Z,6552.00
2023-04-11T01:34:55.744Z,6468.00
2023-04-11T01:35:55.804Z,6446.00
2023-04-11T01:36:55.836Z,6443.00
2023-04-11T01:37:55.930Z,6366.00
2023-04-11T01:38:56.434Z,6348.00
2023-04-11T01:39:55.983Z,6404.00
2023-04-11T01:40:55.937Z,6486.00
2023-04-11T01:41:57.039Z,6600.00
2023-04-11T01:42:56.056Z,6689.00
2023-04-11T01:43:56.123Z,6768.00
2023-04-11T01:44:56.159Z,6824.00
2023-04-11T01:45:56.213Z,6956.00
2023-04-11T01:46:56.282Z,7074.00
2023-04-11T01:47:56.458Z,7157.00
2023-04-11T01:48:56.606Z,7211.00
2023-04-11T01:49:56.812Z,7316.00
2023-04-11T01:50:56.464Z,7228.00
2023-04-11T01:51:56.478Z,7208.00
2023-04-11T01:52:56.459Z,7162.00
2023-04-11T01:53:56.458Z,7104.00
2023-04-11T01:54:56.808Z,7146.00
2023-04-11T01:55:56.816Z,7199.00
2023-04-11T01:56:56.531Z,7238.00
2023-04-11T01:57:56.584Z,7279.00
2023-04-11T01:58:57.909Z,7318.00
2023-04-11T01:59:56.669Z,7388.00
2023-04-11T02:00:56.677Z,7391.00
2023-04-11T02:01:57.185Z,7406.00
2023-04-11T02:02:56.815Z,7329.00
2023-04-11T02:03:56.866Z,7365.00
2023-04-11T02:04:57.152Z,7257.00
2023-04-11T02:05:56.835Z,7015.00
2023-04-11T02:06:56.878Z,6813.00
2023-04-11T02:07:57.305Z,6567.00
2023-04-11T02:08:57.212Z,6273.00
2023-04-11T02:09:57.031Z,6096.00
2023-04-11T02:10:57.034Z,5923.00
2023-04-11T02:11:57.095Z,5931.00
2023-04-11T02:12:57.151Z,5958.00
2023-04-11T02:13:57.156Z,5967.00
2023-04-11T02:14:57.173Z,6065.00
2023-04-11T02:15:57.211Z,6149.00
2023-04-11T02:16:57.319Z,6195.00
2023-04-11T02:17:57.315Z,6282.00
2023-04-11T02:18:57.549Z,6367.00
2023-04-11T02:19:57.504Z,6373.00
2023-04-11T02:20:57.481Z,6311.00
2023-04-11T02:21:57.558Z,6378.00
2023-04-11T02:22:57.544Z,6405.00
2023-04-11T02:23:57.703Z,6411.00
2023-04-11T02:24:57.526Z,6462.00
2023-04-11T02:25:57.514Z,6469.00
2023-04-11T02:26:57.603Z,6468.00
2023-04-11T02:27:57.518Z,6554.00
2023-04-11T02:28:57.734Z,6680.00
2023-04-11T02:29:57.534Z,6714.00
2023-04-11T02:30:57.620Z,6716.00
2023-04-11T02:31:57.713Z,6772.00
2023-04-11T02:32:57.638Z,6720.00
2023-04-11T02:33:57.576Z,6707.00
2023-04-11T02:34:57.617Z,6718.00
2023-04-11T02:35:57.632Z,6659.00
2023-04-11T02:36:57.697Z,6555.00
2023-04-11T02:37:57.701Z,6553.00
2023-04-11T02:38:57.760Z,6508.00
2023-04-11T02:39:57.837Z,6497.00
2023-04-11T02:40:57.825Z,6504.00
2023-04-11T02:41:57.824Z,6579.00
2023-04-11T02:42:58.136Z,6573.00
2023-04-11T02:43:57.854Z,6584.00
2023-04-11T02:44:58.145Z,6517.00
2023-04-11T02:46:05.826Z,6507.00
2023-04-11T02:46:58.871Z,6440.00
2023-04-11T02:47:57.890Z,6465.00
2023-04-11T02:48:58.029Z,6454.00
2023-04-11T02:49:57.823Z,6562.00
2023-04-11T02:50:57.801Z,6759.00
2023-04-11T02:51:57.879Z,6909.00
2023-04-11T02:52:57.836Z,7028.00
2023-04-11T02:53:57.794Z,7099.00
2023-04-11T02:54:57.763Z,7104.00
2023-04-11T02:55:57.792Z,7100.00
2023-04-11T02:56:57.806Z,7160.00
2023-04-11T02:57:57.713Z,7065.00
2023-04-11T02:58:58.113Z,6933.00
2023-04-11T02:59:57.813Z,6907.00
2023-04-11T03:00:57.856Z,6982.00
2023-04-11T03:01:58.003Z,7057.00
2023-04-11T03:02:57.975Z,7152.00
2023-04-11T03:03:57.993Z,7137.00
2023-04-11T03:04:57.932Z,7016.00
2023-04-11T03:05:57.986Z,7016.00
2023-04-11T03:06:57.968Z,7063.00
2023-04-11T03:07:58.263Z,6933.00
2023-04-11T03:08:58.254Z,6795.00
2023-04-11T03:09:57.941Z,6782.00
2023-04-11T03:10:57.929Z,6783.00
2023-04-11T03:11:57.908Z,6770.00
2023-04-11T03:12:57.927Z,6978.00
2023-04-11T03:13:57.946Z,6882.00
2023-04-11T03:14:58.006Z,7045.00
2023-04-11T03:15:57.989Z,6879.00
2023-04-11T03:16:57.968Z,6784.00
2023-04-11T03:17:57.983Z,6448.00
2023-04-11T03:18:58.027Z,6421.00
2023-04-11T03:19:57.975Z,6228.00
2023-04-11T03:20:58.098Z,6204.00
2023-04-11T03:21:58.152Z,6112.00
2023-04-11T03:22:58.216Z,6089.00
2023-04-11T03:23:58.215Z,6096.00
2023-04-11T03:24:58.234Z,6121.00
2023-04-11T03:25:58.295Z,6218.00
2023-04-11T03:26:58.402Z,6334.00
2023-04-11T03:27:58.361Z,6365.00
2023-04-11T03:28:58.388Z,6364.00
2023-04-11T03:29:58.469Z,6321.00
2023-04-11T03:30:58.525Z,6322.00
2023-04-11T03:31:58.478Z,6444.00
2023-04-11T03:32:58.563Z,6763.00
2023-04-11T03:33:58.473Z,6960.00
2023-04-11T03:34:58.486Z,7205.00
2023-04-11T03:35:58.545Z,7342.00
2023-04-11T03:36:58.542Z,7416.00
2023-04-11T03:37:58.566Z,7509.00
2023-04-11T03:38:58.586Z,7543.00
2023-04-11T03:39:58.523Z,7862.00
2023-04-11T03:40:58.646Z,8169.00
2023-04-11T03:41:58.602Z,7819.00
2023-04-11T03:42:58.594Z,7486.00
2023-04-11T03:43:58.641Z,7251.00
2023-04-11T03:44:58.736Z,7170.00
2023-04-11T03:45:58.725Z,7033.00
2023-04-11T03:46:58.823Z,6884.00
2023-04-11T03:47:58.815Z,6887.00
2023-04-11T03:48:58.882Z,6929.00
2023-04-11T03:49:58.801Z,6895.00
2023-04-11T03:50:58.915Z,6985.00
2023-04-11T03:51:58.968Z,6777.00
2023-04-11T03:52:59.037Z,6647.00
2023-04-11T03:53:59.027Z,6588.00
2023-04-11T03:54:59.104Z,6636.00
2023-04-11T03:55:59.146Z,6661.00
2023-04-11T03:56:59.183Z,6733.00
2023-04-11T03:57:59.242Z,6884.00
2023-04-11T03:58:59.297Z,7071.00
2023-04-11T03:59:59.369Z,7125.00
2023-04-11T04:00:59.273Z,7213.00
2023-04-11T04:01:59.439Z,7274.00
2023-04-11T04:02:59.510Z,7247.00
2023-04-11T04:03:59.766Z,7284.00
2023-04-11T04:04:59.450Z,7429.00
2023-04-11T04:05:59.509Z,7471.00
2023-04-11T04:06:59.484Z,7582.00
2023-04-11T04:07:59.448Z,7608.00
2023-04-11T04:08:59.453Z,7419.00
2023-04-11T04:09:59.526Z,7467.00
2023-04-11T04:10:59.455Z,7618.00
2023-04-11T04:11:59.451Z,7508.00
2023-04-11T04:12:59.532Z,7455.00
2023-04-11T04:13:59.495Z,7491.00
2023-04-11T04:14:59.477Z,7542.00
2023-04-11T04:16:01.276Z,7543.00
2023-04-11T04:16:59.560Z,7499.00
2023-04-11T04:17:59.480Z,7539.00
2023-04-11T04:18:59.463Z,7555.00
2023-04-11T04:19:59.476Z,7531.00
2023-04-11T04:20:59.468Z,7561.00
2023-04-11T04:21:59.475Z,7577.00
2023-04-11T04:22:59.461Z,7635.00
2023-04-11T04:23:59.445Z,7713.00
2023-04-11T04:24:59.420Z,7797.00
2023-04-11T04:25:59.420Z,7784.00
2023-04-11T04:26:59.446Z,7924.00
2023-04-11T04:27:59.423Z,7900.00
2023-04-11T04:28:59.427Z,7788.00
2023-04-11T04:30:03.332Z,7796.00
2023-04-11T04:31:00.502Z,7798.00
2023-04-11T04:31:59.417Z,7716.00
2023-04-11T04:32:59.744Z,7604.00
2023-04-11T04:33:59.332Z,7595.00
2023-04-11T04:34:59.370Z,7646.00
2023-04-11T04:35:59.508Z,7708.00
2023-04-11T04:36:59.448Z,7701.00
2023-04-11T04:37:59.393Z,7558.00
2023-04-11T04:38:59.374Z,7516.00
2023-04-11T04:39:59.337Z,7672.00
2023-04-11T04:40:59.349Z,7857.00
2023-04-11T04:41:59.388Z,7571.00
2023-04-11T04:42:59.326Z,7380.00
2023-04-11T04:43:59.568Z,7398.00
2023-04-11T04:44:59.321Z,7625.00
2023-04-11T04:45:59.367Z,7789.00
2023-04-11T04:46:59.303Z,7852.00
2023-04-11T04:47:59.384Z,7860.00
2023-04-11T04:49:01.675Z,7850.00
2023-04-11T04:49:59.252Z,7836.00
2023-04-11T04:50:59.283Z,7829.00
2023-04-11T04:51:59.284Z,7872.00
2023-04-11T04:52:59.274Z,7908.00
2023-04-11T04:53:59.301Z,7814.00
2023-04-11T04:54:59.255Z,7768.00
2023-04-11T04:55:59.256Z,7865.00
2023-04-11T04:56:59.277Z,8127.00
2023-04-11T04:57:59.255Z,8270.00
2023-04-11T04:58:59.224Z,8188.00
2023-04-11T04:59:59.262Z,8166.00
2023-04-11T05:00:59.236Z,8057.00
2023-04-11T05:01:59.304Z,8028.00
2023-04-11T05:03:00.003Z,7992.00
2023-04-11T05:04:00.017Z,7806.00
2023-04-11T05:04:59.242Z,7951.00
2023-04-11T05:05:59.190Z,8049.00
2023-04-11T05:06:59.289Z,8120.00
2023-04-11T05:07:59.257Z,7961.00
2023-04-11T05:08:59.172Z,8005.00
2023-04-11T05:09:59.774Z,8115.00
2023-04-11T05:10:59.140Z,8150.00
2023-04-11T05:11:59.133Z,7903.00
2023-04-11T05:12:59.142Z,7857.00
2023-04-11T05:13:59.570Z,7877.00
2023-04-11T05:14:59.222Z,7788.00
2023-04-11T05:15:59.114Z,7686.00
2023-04-11T05:16:59.203Z,7623.00
2023-04-11T05:17:59.172Z,7509.00
2023-04-11T05:18:59.087Z,7517.00
2023-04-11T05:19:59.087Z,7682.00
2023-04-11T05:20:59.151Z,7877.00
2023-04-11T05:21:59.107Z,8203.00
2023-04-11T05:22:59.910Z,8039.00
2023-04-11T05:23:59.064Z,7774.00
2023-04-11T05:24:59.097Z,7790.00
2023-04-11T05:25:59.089Z,7871.00
2023-04-11T05:26:59.234Z,7848.00
2023-04-11T05:27:59.520Z,7830.00
2023-04-11T05:28:59.202Z,8101.00
2023-04-11T05:29:58.995Z,8213.00
2023-04-11T05:31:00.818Z,8240.00
2023-04-11T05:31:59.026Z,8202.00
2023-04-11T05:32:59.429Z,8153.00
2023-04-11T05:33:59.145Z,8234.00
2023-04-11T05:34:59.488Z,8291.00
2023-04-11T05:35:59.094Z,8473.00
2023-04-11T05:36:59.045Z,8113.00
2023-04-11T05:37:59.309Z,7956.00
2023-04-11T05:38:59.892Z,7909.00
2023-04-11T05:39:59.081Z,7977.00
2023-04-11T05:40:59.148Z,8060.00
2023-04-11T05:41:59.026Z,8074.00
2023-04-11T05:42:59.313Z,8054.00
2023-04-11T05:43:59.051Z,8048.00
2023-04-11T05:44:59.110Z,8059.00
2023-04-11T05:47:19.666Z,500.00
2023-04-11T05:48:19.083Z,500.00
2023-04-11T05:49:18.899Z,500.00
2023-04-11T05:50:19.001Z,500.00
2023-04-11T05:51:18.898Z,500.00
2023-04-11T05:52:19.455Z,500.00
2023-04-11T05:53:19.173Z,500.00
2023-04-11T05:54:19.236Z,500.00
2023-04-11T05:55:19.407Z,500.00
2023-04-11T05:56:19.246Z,500.00
2023-04-11T05:57:19.215Z,500.00
2023-04-11T05:58:19.468Z,503.00
2023-04-11T05:59:24.709Z,527.00
2023-04-11T06:00:19.845Z,529.00
2023-04-11T06:01:20.080Z,529.00
2023-04-11T06:02:19.440Z,489.00
2023-04-11T06:03:20.513Z,400.00
2023-04-11T06:04:19.612Z,400.00
2023-04-11T06:05:19.354Z,400.00
2023-04-11T06:06:19.295Z,400.00
2023-04-11T06:07:20.321Z,400.00
2023-04-11T06:08:19.320Z,400.00
2023-04-11T06:09:19.346Z,400.00
2023-04-11T06:10:19.386Z,400.00
2023-04-11T06:11:19.817Z,400.00
2023-04-11T06:12:19.102Z,400.00
2023-04-11T06:13:19.265Z,400.00
2023-04-11T06:14:19.908Z,400.00
2023-04-11T06:15:19.488Z,405.00
2023-04-11T06:16:19.428Z,487.00
2023-04-11T06:17:19.450Z,476.00
2023-04-11T06:18:20.260Z,494.00
2023-04-11T06:19:19.338Z,527.00
2023-04-11T06:20:19.431Z,483.00
2023-04-11T06:21:19.240Z,484.00
2023-04-11T06:22:19.272Z,514.00
2023-04-11T06:23:19.288Z,501.00
2023-04-11T06:24:19.443Z,480.00
2023-04-11T06:25:19.354Z,462.00
2023-04-11T06:26:19.402Z,482.00
2023-04-11T06:27:19.256Z,501.00
2023-04-11T06:28:19.307Z,533.00
2023-04-11T06:29:19.377Z,539.00
2023-04-11T06:30:19.430Z,528.00
2023-04-11T06:31:19.467Z,536.00
2023-04-11T06:32:19.790Z,551.00
2023-04-11T06:33:19.416Z,528.00
2023-04-11T06:34:19.358Z,530.00
2023-04-11T06:35:19.374Z,489.00
2023-04-11T06:36:19.470Z,457.00
2023-04-11T06:37:19.378Z,485.00
2023-04-11T06:38:20.874Z,537.00
2023-04-11T06:39:19.274Z,513.00
2023-04-11T06:40:19.253Z,498.00
2023-04-11T06:42:39.169Z,500.00
2023-04-11T06:43:39.986Z,500.00
2023-04-11T06:44:40.064Z,500.00
2023-04-11T06:45:39.106Z,500.00
2023-04-11T06:46:39.146Z,500.00
2023-04-11T06:47:39.922Z,500.00
2023-04-11T06:48:39.253Z,500.00
2023-04-11T06:49:39.973Z,500.00
2023-04-11T06:50:39.206Z,500.00
2023-04-11T06:51:39.172Z,500.00
2023-04-11T06:52:39.089Z,500.00
2023-04-11T06:53:39.046Z,500.00
2023-04-11T06:54:39.183Z,500.00
2023-04-11T06:55:39.136Z,500.00
2023-04-11T06:56:39.226Z,500.00
2023-04-11T06:57:39.138Z,500.00
2023-04-11T06:58:39.705Z,500.00
2023-04-11T06:59:39.891Z,500.00
2023-04-11T07:00:39.063Z,500.00
2023-04-11T07:01:39.362Z,509.00
2023-04-11T07:02:39.401Z,529.00
2023-04-11T07:03:39.767Z,524.00
2023-04-11T07:04:39.175Z,529.00
2023-04-11T07:05:39.670Z,539.00
2023-04-11T07:06:39.094Z,530.00
2023-04-11T07:07:39.093Z,529.00
2023-04-11T07:08:39.145Z,499.00
2023-04-11T07:09:40.249Z,498.00
2023-04-11T07:10:39.226Z,534.00
2023-04-11T07:11:39.035Z,517.00
2023-04-11T07:12:39.209Z,448.00
2023-04-11T07:13:39.255Z,435.00
2023-04-11T07:14:39.237Z,428.00
2023-04-11T07:15:39.207Z,400.00
2023-04-11T07:16:39.287Z,400.00
2023-04-11T07:17:39.395Z,400.00
2023-04-11T07:18:39.238Z,400.00
2023-04-11T07:19:39.208Z,400.00
2023-04-11T07:20:39.283Z,400.00
2023-04-11T07:21:39.203Z,400.00
2023-04-11T07:22:39.269Z,400.00
2023-04-11T07:23:40.127Z,400.00
2023-04-11T07:24:39.136Z,400.00
2023-04-11T07:25:39.084Z,400.00
2023-04-11T07:26:39.118Z,400.00
2023-04-11T07:27:39.133Z,425.00
2023-04-11T07:28:39.075Z,525.00
2023-04-11T07:29:39.102Z,551.00
2023-04-11T07:30:39.052Z,769.00
2023-04-11T07:31:39.115Z,1000.00
2023-04-11T07:32:39.185Z,1051.00
2023-04-11T07:33:39.505Z,685.00
2023-04-11T07:34:39.184Z,561.00
2023-04-11T07:35:39.167Z,581.00
2023-04-11T07:36:39.163Z,528.00
2023-04-11T07:37:39.174Z,500.00
2023-04-11T07:38:39.486Z,506.00
2023-04-11T07:39:39.243Z,552.00
2023-04-11T07:40:39.255Z,565.00
2023-04-11T07:41:39.456Z,500.00
2023-04-11T07:42:39.335Z,500.00
2023-04-11T07:43:39.572Z,505.00
2023-04-11T07:44:39.462Z,531.00
2023-04-11T07:45:39.709Z,497.00
2023-04-11T07:46:39.541Z,548.00
2023-04-11T07:47:39.603Z,596.00
2023-04-11T07:48:40.070Z,631.00
2023-04-11T07:49:39.592Z,616.00
2023-04-11T07:50:39.712Z,625.00
2023-04-11T07:51:39.715Z,625.00
2023-04-11T07:52:39.618Z,589.00
2023-04-11T07:53:39.690Z,613.00
2023-04-11T07:54:39.634Z,625.00
2023-04-11T07:55:39.577Z,634.00
2023-04-11T07:56:39.616Z,683.00
2023-04-11T07:57:40.296Z,755.00
2023-04-11T07:58:39.652Z,1097.00
2023-04-11T07:59:39.604Z,1000.00
2023-04-11T08:00:42.203Z,951.00
2023-04-11T08:01:39.693Z,952.00
2023-04-11T08:02:39.725Z,975.00
2023-04-11T08:03:39.659Z,1023.00
2023-04-11T08:04:39.821Z,798.00
2023-04-11T08:05:39.586Z,803.00
2023-04-11T08:06:39.464Z,813.00
2023-04-11T08:07:39.445Z,814.00
2023-04-11T08:08:40.549Z,847.00
2023-04-11T08:09:39.461Z,723.00
2023-04-11T08:10:39.525Z,691.00
2023-04-11T08:11:39.530Z,830.00
2023-04-11T08:12:39.517Z,879.00
2023-04-11T08:13:39.555Z,764.00
2023-04-11T08:14:39.502Z,765.00
2023-04-11T08:15:39.486Z,765.00
2023-04-11T08:16:39.540Z,773.00
2023-04-11T08:17:39.561Z,963.00
2023-04-11T08:18:39.450Z,1481.00
2023-04-11T08:19:39.504Z,1580.00
2023-04-11T08:20:39.568Z,1377.00
2023-04-11T08:21:39.413Z,1142.00
2023-04-11T08:22:39.456Z,998.00
2023-04-11T08:23:39.436Z,1021.00
2023-04-11T08:24:39.514Z,963.00
2023-04-11T08:25:39.449Z,971.00
2023-04-11T08:26:39.541Z,993.00
2023-04-11T08:27:39.387Z,1100.00
2023-04-11T08:28:41.114Z,1070.00
2023-04-11T08:29:39.989Z,1136.00
2023-04-11T08:30:40.528Z,967.00
2023-04-11T08:31:39.737Z,993.00
2023-04-11T08:32:40.624Z,987.00
2023-04-11T08:33:39.819Z,946.00
2023-04-11T08:34:39.712Z,722.00
2023-04-11T08:35:39.833Z,819.00
2023-04-11T08:36:39.718Z,941.00
2023-04-11T08:37:39.785Z,955.00
2023-04-11T08:38:39.698Z,758.00
2023-04-11T08:39:40.056Z,761.00
2023-04-11T08:40:39.884Z,749.00
2023-04-11T08:41:39.660Z,423.00
2023-04-11T08:42:39.680Z,484.00
2023-04-11T08:43:39.655Z,537.00
2023-04-11T08:44:39.633Z,834.00
2023-04-11T08:45:39.667Z,1159.00
2023-04-11T08:46:39.764Z,1597.00
2023-04-11T08:47:39.759Z,1753.00
2023-04-11T08:48:39.810Z,1678.00
2023-04-11T08:49:40.537Z,1219.00
2023-04-11T08:50:40.599Z,675.00
2023-04-11T08:51:39.722Z,926.00
2023-04-11T08:52:39.803Z,1237.00
2023-04-11T08:53:40.040Z,1546.00
2023-04-11T08:54:39.986Z,1785.00
2023-04-11T08:55:39.862Z,1965.00
2023-04-11T08:56:39.749Z,1775.00
2023-04-11T08:57:39.854Z,1890.00
2023-04-11T08:58:41.359Z,1968.00
2023-04-11T08:59:39.766Z,1968.00
2023-04-11T09:00:39.712Z,1824.00
2023-04-11T09:01:39.833Z,1523.00
2023-04-11T09:02:39.921Z,1476.00
2023-04-11T09:03:39.877Z,1500.00
2023-04-11T09:04:39.905Z,1475.00
2023-04-11T09:05:39.934Z,1288.00
2023-04-11T09:06:39.938Z,1079.00
2023-04-11T09:07:39.828Z,1872.00
2023-04-11T09:08:39.899Z,1786.00
2023-04-11T09:09:39.932Z,1700.00
2023-04-11T09:10:39.932Z,1701.00
2023-04-11T09:11:39.958Z,1687.00
2023-04-11T09:12:40.036Z,1681.00
2023-04-11T09:13:40.087Z,1773.00
2023-04-11T09:14:40.206Z,1716.00
2023-04-11T09:15:40.107Z,1670.00
2023-04-11T09:16:40.100Z,1776.00
2023-04-11T09:17:40.168Z,1834.00
2023-04-11T09:18:40.174Z,1782.00
2023-04-11T09:19:40.089Z,1825.00
2023-04-11T09:20:40.117Z,1681.00
2023-04-11T09:21:40.222Z,1672.00
2023-04-11T09:22:42.612Z,1436.00
2023-04-11T09:23:40.537Z,1581.00
2023-04-11T09:24:40.262Z,1273.00
2023-04-11T09:25:40.130Z,1393.00
2023-04-11T09:26:40.142Z,1498.00
2023-04-11T09:27:40.176Z,1482.00
2023-04-11T09:28:40.565Z,1498.00
2023-04-11T09:29:40.221Z,1582.00
2023-04-11T09:30:40.212Z,1607.00
2023-04-11T09:31:40.317Z,1737.00
2023-04-11T09:32:40.201Z,1587.00
2023-04-11T09:33:40.441Z,1571.00
2023-04-11T09:34:42.400Z,1667.00
2023-04-11T09:35:40.103Z,1765.00
2023-04-11T09:36:41.107Z,1636.00
2023-04-11T09:37:40.131Z,1539.00
2023-04-11T09:38:40.053Z,1612.00
2023-04-11T09:39:40.700Z,1625.00
2023-04-11T09:40:40.255Z,1567.00
2023-04-11T09:41:40.053Z,1622.00
2023-04-11T09:42:40.062Z,1629.00
2023-04-11T09:43:40.087Z,1320.00
2023-04-11T09:44:40.619Z,908.00
2023-04-11T09:45:51.719Z,1084.00
2023-04-11T09:46:41.043Z,1075.00
2023-04-11T09:47:41.389Z,1038.00
2023-04-11T09:48:46.383Z,979.00
2023-04-11T09:49:40.992Z,1085.00
2023-04-11T09:50:40.024Z,1003.00
2023-04-11T09:51:40.469Z,745.00
2023-04-11T09:52:40.017Z,734.00
2023-04-11T09:53:40.000Z,893.00
2023-04-11T09:54:40.150Z,955.00
2023-04-11T09:55:39.944Z,858.00
2023-04-11T09:56:39.961Z,583.00
2023-04-11T09:57:39.962Z,549.00
2023-04-11T09:58:39.964Z,557.00
2023-04-11T09:59:40.044Z,562.00
2023-04-11T10:00:39.967Z,482.00
2023-04-11T10:01:40.096Z,471.00
2023-04-11T10:02:40.341Z,464.00
2023-04-11T10:03:40.119Z,540.00
2023-04-11T10:04:40.136Z,439.00
2023-04-11T10:05:40.104Z,564.00
2023-04-11T10:06:40.256Z,612.00
2023-04-11T10:07:40.329Z,517.00
2023-04-11T10:08:40.270Z,479.00
2023-04-11T10:09:40.434Z,467.00
2023-04-11T10:10:40.386Z,603.00
2023-04-11T10:11:40.478Z,474.00
2023-04-11T10:12:40.447Z,506.00
2023-04-11T10:13:40.402Z,510.00
2023-04-11T10:14:40.452Z,513.00
2023-04-11T10:15:40.452Z,517.00
2023-04-11T10:16:40.431Z,445.00
2023-04-11T10:17:40.613Z,669.00
2023-04-11T10:18:40.550Z,1306.00
2023-04-11T10:19:40.550Z,1454.00
2023-04-11T10:20:40.443Z,1183.00
2023-04-11T10:21:40.515Z,1266.00
2023-04-11T10:22:41.361Z,1289.00
2023-04-11T10:23:40.615Z,1320.00
2023-04-11T10:24:40.576Z,1291.00
2023-04-11T10:25:40.594Z,1236.00
2023-04-11T10:26:40.554Z,1387.00
2023-04-11T10:27:40.494Z,1362.00
2023-04-11T10:28:40.505Z,1477.00
2023-04-11T10:29:40.636Z,1512.00
2023-04-11T10:30:40.508Z,1590.00
2023-04-11T10:31:40.601Z,1151.00
2023-04-11T10:32:40.550Z,884.00
2023-04-11T10:33:40.508Z,731.00
2023-04-11T10:34:41.027Z,633.00
2023-04-11T10:35:40.569Z,624.00
2023-04-11T10:36:40.560Z,808.00
2023-04-11T10:37:43.812Z,1073.00
2023-04-11T10:38:41.922Z,922.00
2023-04-11T10:39:41.061Z,730.00
2023-04-11T10:40:40.680Z,606.00
2023-04-11T10:41:40.704Z,609.00
2023-04-11T10:42:40.749Z,501.00
2023-04-11T10:43:40.885Z,400.00
2023-04-11T10:44:40.855Z,400.00
2023-04-11T10:45:40.689Z,400.00
2023-04-11T10:46:42.768Z,400.00
2023-04-11T10:47:40.681Z,400.00
2023-04-11T10:48:40.656Z,400.00
2023-04-11T10:49:40.709Z,400.00
2023-04-11T10:50:40.724Z,400.00
2023-04-11T10:51:40.622Z,400.00
2023-04-11T10:52:40.637Z,400.00
2023-04-11T10:53:40.539Z,400.00
2023-04-11T10:54:40.681Z,400.00
2023-04-11T10:55:40.851Z,400.00
2023-04-11T10:56:40.501Z,400.00
2023-04-11T10:57:40.592Z,400.00
2023-04-11T10:58:40.673Z,400.00
2023-04-11T10:59:41.223Z,400.00
2023-04-11T11:00:40.806Z,400.00
2023-04-11T11:02:41.175Z,400.00
2023-04-11T11:03:40.848Z,400.00
2023-04-11T11:04:41.024Z,400.00
2023-04-11T11:05:40.637Z,400.00
2023-04-11T11:06:47.333Z,400.00
2023-04-11T11:07:42.514Z,400.00
2023-04-11T11:08:42.265Z,400.00
2023-04-11T11:09:42.311Z,400.00
2023-04-11T11:10:41.546Z,400.00
2023-04-11T11:11:40.592Z,400.00
2023-04-11T11:12:40.845Z,400.00
2023-04-11T11:13:42.744Z,400.00
2023-04-11T11:14:40.521Z,400.00
2023-04-11T11:15:40.749Z,400.00
2023-04-11T11:16:40.711Z,400.00
2023-04-11T11:17:40.614Z,400.00
2023-04-11T11:18:40.634Z,400.00
2023-04-11T11:19:40.616Z,400.00
2023-04-11T11:20:40.522Z,400.00
2023-04-11T11:21:40.556Z,400.00
2023-04-11T11:22:40.536Z,400.00
2023-04-11T11:23:40.627Z,400.00
2023-04-11T11:24:40.649Z,400.00
2023-04-11T11:25:41.110Z,400.00
2023-04-11T11:26:41.394Z,400.00
2023-04-11T11:27:41.492Z,400.00
2023-04-11T11:28:42.842Z,400.00
2023-04-11T11:29:41.187Z,400.00
2023-04-11T11:30:41.333Z,400.00
2023-04-11T11:31:41.329Z,400.00
2023-04-11T11:32:41.276Z,400.00
2023-04-11T11:33:41.115Z,400.00
2023-04-11T11:34:41.657Z,400.00
2023-04-11T11:35:41.138Z,400.00
2023-04-11T11:36:41.075Z,400.00
2023-04-11T11:37:41.181Z,400.00
2023-04-11T11:38:40.863Z,400.00
2023-04-11T11:39:41.064Z,400.00
2023-04-11T11:40:40.895Z,400.00
2023-04-11T11:41:41.678Z,400.00
2023-04-11T11:42:40.983Z,400.00
2023-04-11T11:43:40.971Z,400.00
2023-04-11T11:44:41.004Z,400.00
2023-04-11T11:45:40.990Z,400.00
2023-04-11T11:46:40.961Z,400.00
2023-04-11T11:47:42.329Z,400.00
2023-04-11T11:48:41.035Z,400.00
2023-04-11T11:49:41.059Z,400.00
2023-04-11T11:50:41.045Z,400.00
2023-04-11T11:51:40.962Z,400.00
2023-04-11T11:52:41.053Z,400.00
2023-04-11T11:53:41.083Z,400.00
2023-04-11T11:54:40.967Z,400.00
2023-04-11T11:55:41.111Z,400.00
2023-04-11T11:56:41.019Z,400.00
2023-04-11T11:57:41.222Z,400.00
2023-04-11T11:58:42.119Z,400.00
2023-04-11T11:59:41.131Z,400.00
2023-04-11T12:00:41.100Z,400.00
2023-04-11T12:01:41.040Z,400.00
2023-04-11T12:02:41.192Z,400.00
2023-04-11T12:03:41.182Z,400.00
2023-04-11T12:04:41.290Z,400.00
2023-04-11T12:05:41.026Z,400.00
2023-04-11T12:06:40.970Z,400.00
2023-04-11T12:07:41.057Z,400.00
2023-04-11T12:08:40.989Z,400.00
2023-04-11T12:09:40.968Z,400.00
2023-04-11T12:10:41.098Z,400.00
2023-04-11T12:11:41.089Z,400.00
2023-04-11T12:12:41.223Z,400.00
2023-04-11T12:13:41.036Z,416.00
2023-04-11T12:14:41.052Z,477.00
2023-04-11T12:15:41.287Z,583.00
2023-04-11T12:16:41.008Z,1050.00
2023-04-11T12:17:41.246Z,418.00
2023-04-11T12:18:41.043Z,458.00